createdAt,value
2023-11-12T00:00:40.793Z,10.47
2023-11-12T00:03:07.841Z,9.10
2023-11-12T00:05:35.339Z,10.20
2023-11-12T00:08:02.552Z,8.03
2023-11-12T00:10:29.571Z,10.60
2023-11-12T00:12:56.569Z,7.70
2023-11-12T00:15:23.505Z,9.23
2023-11-12T00:17:50.547Z,9.63
2023-11-12T00:20:18.973Z,12.37
2023-11-12T00:22:46.208Z,12.03
2023-11-12T00:25:14.822Z,8.03
2023-11-12T00:27:42.075Z,8.50
2023-11-12T00:30:10.443Z,10.83
2023-11-12T00:32:38.251Z,8.73
2023-11-12T00:35:06.621Z,10.30
2023-11-12T00:37:34.156Z,7.67
2023-11-12T00:40:01.319Z,9.77
2023-11-12T00:42:28.573Z,9.93
2023-11-12T00:44:55.617Z,9.00
2023-11-12T00:47:22.697Z,13.33
2023-11-12T00:49:49.826Z,10.20
2023-11-12T00:52:17.634Z,16.43
2023-11-12T00:54:45.356Z,6.97
2023-11-12T00:57:12.367Z,7.27
2023-11-12T00:59:39.304Z,8.53
2023-11-12T01:02:06.490Z,8.10
2023-11-12T01:04:33.531Z,10.33
2023-11-12T01:07:00.452Z,7.37
2023-11-12T01:09:29.471Z,6.93
2023-11-12T01:11:56.447Z,6.40
2023-11-12T01:14:23.935Z,7.10
2023-11-12T01:16:51.050Z,6.20
2023-11-12T01:19:18.044Z,9.47
2023-11-12T01:21:44.997Z,6.80
2023-11-12T01:24:12.043Z,7.50
2023-11-12T01:26:39.652Z,7.00
2023-11-12T01:29:06.678Z,6.97
2023-11-12T01:31:33.643Z,6.77
2023-11-12T01:34:01.349Z,8.50
2023-11-12T01:36:28.455Z,6.67
2023-11-12T01:38:55.459Z,6.93
2023-11-12T01:41:23.125Z,9.03
2023-11-12T01:43:50.076Z,7.47
2023-11-12T01:46:19.992Z,8.97
2023-11-12T01:48:47.852Z,7.70
2023-11-12T01:51:15.201Z,8.13
2023-11-12T01:53:42.663Z,6.00
2023-11-12T01:56:13.025Z,7.77
2023-11-12T01:58:41.958Z,6.70
2023-11-12T02:01:09.343Z,10.97
2023-11-12T02:03:38.068Z,6.97
2023-11-12T02:06:06.551Z,7.53
2023-11-12T02:08:36.272Z,9.10
2023-11-12T02:11:08.946Z,10.57
2023-11-12T02:13:38.409Z,8.10
2023-11-12T02:16:05.857Z,8.83
2023-11-12T02:18:32.854Z,7.93
2023-11-12T02:21:00.564Z,8.17
2023-11-12T02:23:28.168Z,6.87
2023-11-12T02:25:55.117Z,13.30
2023-11-12T02:28:22.161Z,7.10
2023-11-12T02:30:49.281Z,7.10
2023-11-12T02:33:16.514Z,8.67
2023-11-12T02:35:46.915Z,7.77
2023-11-12T02:38:13.965Z,7.77
2023-11-12T02:40:40.936Z,10.40
2023-11-12T02:43:08.009Z,9.27
2023-11-12T02:45:35.008Z,9.10
2023-11-12T02:48:03.088Z,10.20
2023-11-12T02:50:34.310Z,10.20
2023-11-12T02:53:04.518Z,11.37
2023-11-12T02:55:32.682Z,11.80
2023-11-12T02:58:01.484Z,12.77
2023-11-12T03:00:29.529Z,11.40
2023-11-12T03:03:02.410Z,10.10
2023-11-12T03:05:32.702Z,9.40
2023-11-12T03:07:59.875Z,9.27
2023-11-12T03:10:26.982Z,10.37
2023-11-12T03:12:55.121Z,10.53
2023-11-12T03:15:22.462Z,9.53
2023-11-12T03:17:52.148Z,9.77
2023-11-12T03:20:19.292Z,9.20
2023-11-12T03:22:47.068Z,11.93
2023-11-12T03:25:14.039Z,10.43
2023-11-12T03:27:41.168Z,11.13
2023-11-12T03:30:10.562Z,8.80
2023-11-12T03:32:37.894Z,8.60
2023-11-12T03:35:06.078Z,9.10
2023-11-12T03:37:33.516Z,10.50
2023-11-12T03:40:00.588Z,9.43
2023-11-12T03:42:28.094Z,10.47
2023-11-12T03:44:56.945Z,11.13
2023-11-12T03:47:25.515Z,10.13
2023-11-12T03:49:52.493Z,11.80
2023-11-12T03:52:19.434Z,10.37
2023-11-12T03:54:46.536Z,10.10
2023-11-12T03:57:14.550Z,9.83
2023-11-12T03:59:41.661Z,9.70
2023-11-12T04:02:08.673Z,9.60
2023-11-12T04:04:36.267Z,12.53
2023-11-12T04:07:03.962Z,10.57
2023-11-12T04:09:31.757Z,10.60
2023-11-12T04:11:58.740Z,14.17
2023-11-12T04:14:25.699Z,10.67
2023-11-12T04:16:52.653Z,11.70
2023-11-12T04:19:19.583Z,12.20
2023-11-12T04:21:48.346Z,10.33
2023-11-12T04:24:16.550Z,12.13
2023-11-12T04:26:44.081Z,11.17
2023-11-12T04:29:11.722Z,10.60
2023-11-12T04:31:40.292Z,12.33
2023-11-12T04:34:08.254Z,11.97
2023-11-12T04:36:37.825Z,10.10
2023-11-12T04:39:05.659Z,11.87
2023-11-12T04:41:32.808Z,12.07
2023-11-12T04:44:00.418Z,12.50
2023-11-12T04:46:28.920Z,10.67
2023-11-12T04:48:56.200Z,9.53
2023-11-12T04:51:23.486Z,11.80
2023-11-12T04:53:50.493Z,10.60
2023-11-12T04:56:17.441Z,13.40
2023-11-12T04:58:44.415Z,12.10
2023-11-12T05:01:11.342Z,11.20
2023-11-12T05:03:38.352Z,13.73
2023-11-12T05:06:05.659Z,10.90
2023-11-12T05:08:32.835Z,10.17
2023-11-12T05:10:59.990Z,10.60
2023-11-12T05:13:27.230Z,11.60
2023-11-12T05:15:54.445Z,11.10
2023-11-12T05:18:22.556Z,15.57
2023-11-12T05:20:49.664Z,15.97
2023-11-12T05:23:16.652Z,11.43
2023-11-12T05:25:43.586Z,12.80
2023-11-12T05:28:10.526Z,13.17
2023-11-12T05:30:37.699Z,12.03
2023-11-12T05:33:04.688Z,12.93
2023-11-12T05:35:31.892Z,12.37
2023-11-12T05:37:58.806Z,11.50
2023-11-12T05:40:25.795Z,13.70
2023-11-12T05:42:52.770Z,10.67
2023-11-12T05:45:20.313Z,12.87
2023-11-12T05:47:47.495Z,11.50
2023-11-12T05:50:15.795Z,14.53
2023-11-12T05:52:43.540Z,17.77
2023-11-12T05:55:11.853Z,16.67
2023-11-12T05:57:38.839Z,17.37
2023-11-12T06:00:10.383Z,17.20
2023-11-12T06:02:40.617Z,14.87
2023-11-12T06:05:08.183Z,16.03
2023-11-12T06:07:35.193Z,15.50
2023-11-12T06:10:02.657Z,19.50
2023-11-12T06:12:29.681Z,18.47
2023-11-12T06:14:56.822Z,17.50
2023-11-12T06:17:25.906Z,18.47
2023-11-12T06:19:53.463Z,17.70
2023-11-12T06:22:21.276Z,18.27
2023-11-12T06:24:48.277Z,15.27
2023-11-12T06:27:15.244Z,19.00
2023-11-12T06:29:42.180Z,17.53
2023-11-12T06:32:09.130Z,18.40
2023-11-12T06:34:36.296Z,26.60
2023-11-12T06:37:04.295Z,19.07
2023-11-12T06:39:32.139Z,17.73
2023-11-12T06:41:59.293Z,17.90
2023-11-12T06:44:26.264Z,18.33
2023-11-12T06:46:53.255Z,18.00
2023-11-12T06:49:20.221Z,19.53
2023-11-12T06:51:47.218Z,28.43
2023-11-12T06:54:14.273Z,17.70
2023-11-12T06:56:41.289Z,21.30
2023-11-12T06:59:08.277Z,18.17
2023-11-12T07:01:35.294Z,17.87
2023-11-12T07:04:02.407Z,20.73
2023-11-12T07:06:30.100Z,20.20
2023-11-12T07:08:57.066Z,15.40
2023-11-12T07:11:23.974Z,15.43
2023-11-12T07:13:51.258Z,15.73
2023-11-12T07:16:19.265Z,25.87
2023-11-12T07:18:53.764Z,16.00
2023-11-12T07:21:29.846Z,13.33
2023-11-12T07:23:57.285Z,17.07
2023-11-12T07:26:25.767Z,10.10
2023-11-12T07:28:53.827Z,12.53
2023-11-12T07:31:24.187Z,11.67
2023-11-12T07:33:52.127Z,13.27
2023-11-12T07:36:19.843Z,11.83
2023-11-12T07:38:46.936Z,15.37
2023-11-12T07:41:13.865Z,12.53
2023-11-12T07:43:41.124Z,11.83
2023-11-12T07:46:08.316Z,9.77
2023-11-12T07:48:36.814Z,14.87
2023-11-12T07:51:03.964Z,9.83
2023-11-12T07:53:30.881Z,9.33
2023-11-12T07:55:57.898Z,9.70
2023-11-12T07:58:24.967Z,11.00
2023-11-12T08:00:52.200Z,11.80
2023-11-12T08:03:20.488Z,10.60
2023-11-12T08:05:48.343Z,12.43
2023-11-12T08:08:15.288Z,13.00
2023-11-12T08:10:42.255Z,13.00
2023-11-12T08:13:09.199Z,13.03
2023-11-12T08:15:36.405Z,14.43
2023-11-12T08:18:06.412Z,15.20
2023-11-12T08:20:35.604Z,11.83
2023-11-12T08:23:03.220Z,10.93
2023-11-12T08:25:30.188Z,14.00
2023-11-12T08:27:58.390Z,14.40
2023-11-12T08:30:25.669Z,23.83
2023-11-12T08:32:53.188Z,12.67
2023-11-12T08:35:20.149Z,11.83
2023-11-12T08:37:47.626Z,13.50
2023-11-12T08:40:16.608Z,12.50
2023-11-12T08:42:44.855Z,14.10
2023-11-12T08:45:11.840Z,12.63
2023-11-12T08:47:38.801Z,12.70
2023-11-12T08:50:06.278Z,12.93
2023-11-12T08:52:33.240Z,12.40
2023-11-12T08:55:00.425Z,13.70
2023-11-12T08:57:27.449Z,15.43
2023-11-12T08:59:54.793Z,17.30
2023-11-12T09:02:21.773Z,18.33
2023-11-12T09:04:48.729Z,14.13
2023-11-12T09:07:15.691Z,16.93
2023-11-12T09:09:42.672Z,11.80
2023-11-12T09:12:09.684Z,12.03
2023-11-12T09:14:36.903Z,11.23
2023-11-12T09:17:04.119Z,11.37
2023-11-12T09:19:31.112Z,9.60
2023-11-12T09:21:58.124Z,11.80
2023-11-12T09:24:25.252Z,12.93
2023-11-12T09:26:52.326Z,11.57
2023-11-12T09:29:19.926Z,11.20
2023-11-12T09:31:46.865Z,10.60
2023-11-12T09:34:14.602Z,11.60
2023-11-12T09:36:41.544Z,14.20
2023-11-12T09:39:08.530Z,9.03
2023-11-12T09:41:40.163Z,12.07
2023-11-12T09:44:08.944Z,11.80
2023-11-12T09:46:36.788Z,12.13
2023-11-12T09:49:05.341Z,13.20
2023-11-12T09:51:34.864Z,10.10
2023-11-12T09:54:02.208Z,13.80
2023-11-12T09:56:29.230Z,12.00
2023-11-12T09:58:56.183Z,16.63
2023-11-12T10:01:24.042Z,21.13
2023-11-12T10:03:52.440Z,13.10
2023-11-12T10:06:22.167Z,14.50
2023-11-12T10:08:51.319Z,10.57
2023-11-12T10:11:25.605Z,22.70
2023-11-12T10:13:53.124Z,13.13
2023-11-12T10:16:33.700Z,11.43
2023-11-12T10:19:16.250Z,12.43
2023-11-12T10:21:58.049Z,11.23
2023-11-12T10:24:30.718Z,13.10
2023-11-12T10:27:01.971Z,11.73
2023-11-12T10:29:28.902Z,13.40
2023-11-12T10:31:56.646Z,11.07
2023-11-12T10:34:25.873Z,12.27
2023-11-12T10:37:09.243Z,11.67
2023-11-12T10:39:42.656Z,9.20
2023-11-12T10:42:25.803Z,11.57
2023-11-12T10:44:57.291Z,12.10
2023-11-12T10:47:31.231Z,9.57
2023-11-12T10:49:59.094Z,10.67
2023-11-12T10:52:27.947Z,10.33
2023-11-12T10:54:59.399Z,11.97
2023-11-12T10:57:27.372Z,12.30
2023-11-12T10:59:56.007Z,12.50
2023-11-12T11:02:29.830Z,11.10
2023-11-12T11:04:58.151Z,11.00
2023-11-12T11:07:25.503Z,7.43
2023-11-12T11:09:52.895Z,8.10
2023-11-12T11:12:20.557Z,7.57
2023-11-12T11:14:47.840Z,9.13
2023-11-12T11:17:39.661Z,8.03
2023-11-12T11:20:07.428Z,9.97
2023-11-12T11:22:34.389Z,7.53
2023-11-12T11:25:23.407Z,13.77
2023-11-12T11:27:51.749Z,9.00
2023-11-12T11:30:18.874Z,11.67
2023-11-12T11:33:03.753Z,7.77
2023-11-12T11:35:32.826Z,18.30
2023-11-12T11:38:12.846Z,15.73
2023-11-12T11:40:43.651Z,8.83
2023-11-12T11:43:23.086Z,8.30
2023-11-12T11:46:09.714Z,10.97
2023-11-12T11:48:48.964Z,12.10
2023-11-12T11:51:36.243Z,15.73
2023-11-12T11:54:07.419Z,6.57
2023-11-12T11:56:35.277Z,7.77
2023-11-12T11:59:02.941Z,5.00
2023-11-12T12:01:29.920Z,7.30
2023-11-12T12:04:06.458Z,7.43
2023-11-12T12:06:34.545Z,5.73
2023-11-12T12:09:01.563Z,6.30
2023-11-12T12:11:28.589Z,5.30
2023-11-12T12:14:01.226Z,5.60
2023-11-12T12:16:30.334Z,5.30
2023-11-12T12:18:57.684Z,7.73
2023-11-12T12:21:25.711Z,12.13
2023-11-12T12:23:53.155Z,5.20
2023-11-12T12:26:25.440Z,5.60
2023-11-12T12:28:53.574Z,7.93
2023-11-12T12:31:21.107Z,6.13
2023-11-12T12:34:09.376Z,5.67
2023-11-12T12:36:37.510Z,5.20
2023-11-12T12:39:10.922Z,5.87
2023-11-12T12:41:41.027Z,4.93
2023-11-12T12:44:23.884Z,3.80
2023-11-12T12:46:55.421Z,4.57
2023-11-12T12:49:40.943Z,5.97
2023-11-12T12:52:24.631Z,7.20
2023-11-12T12:54:54.146Z,4.50
2023-11-12T12:57:25.121Z,7.70
2023-11-12T12:59:52.248Z,4.23
2023-11-12T13:02:19.257Z,4.53
2023-11-12T13:04:48.457Z,4.00
2023-11-12T13:07:16.353Z,3.70
2023-11-12T13:09:45.659Z,3.37
2023-11-12T13:12:13.691Z,4.00
2023-11-12T13:14:42.073Z,5.07
2023-11-12T13:17:09.649Z,5.17
2023-11-12T13:19:37.064Z,4.00
2023-11-12T13:22:04.747Z,3.70
2023-11-12T13:24:35.485Z,5.47
2023-11-12T13:27:03.930Z,3.63
2023-11-12T13:29:30.878Z,3.83
2023-11-12T13:31:57.971Z,4.60
2023-11-12T13:34:25.154Z,5.20
2023-11-12T13:36:52.548Z,6.00
2023-11-12T13:39:19.705Z,4.33
2023-11-12T13:41:48.147Z,4.13
2023-11-12T13:44:15.699Z,4.80
2023-11-12T13:46:42.770Z,3.80
2023-11-12T13:49:10.452Z,6.00
2023-11-12T13:51:40.851Z,4.00
2023-11-12T13:54:11.542Z,4.60
2023-11-12T13:56:40.178Z,4.50
2023-11-12T13:59:07.141Z,4.47
2023-11-12T14:01:34.226Z,3.87
2023-11-12T14:04:01.978Z,3.90
2023-11-12T14:06:29.107Z,4.77
2023-11-12T14:08:57.296Z,4.73
2023-11-12T14:11:24.259Z,4.27
2023-11-12T14:13:52.017Z,4.10
2023-11-12T14:16:19.150Z,6.10
2023-11-12T14:18:46.595Z,4.30
2023-11-12T14:21:13.829Z,5.70
2023-11-12T14:23:41.422Z,6.70
2023-11-12T14:26:09.672Z,4.63
2023-11-12T14:28:37.029Z,4.67
2023-11-12T14:31:08.347Z,5.23
2023-11-12T14:33:35.867Z,5.23
2023-11-12T14:36:03.063Z,5.37
2023-11-12T14:38:32.816Z,5.03
2023-11-12T14:40:59.752Z,6.27
2023-11-12T14:43:26.689Z,4.40
2023-11-12T14:45:53.763Z,6.03
2023-11-12T14:48:20.961Z,5.97
2023-11-12T14:50:49.952Z,5.40
2023-11-12T14:53:17.046Z,6.07
2023-11-12T14:55:43.974Z,5.77
2023-11-12T14:58:11.107Z,6.50
2023-11-12T15:00:41.059Z,5.00
2023-11-12T15:03:08.171Z,5.07
2023-11-12T15:05:35.714Z,5.83
2023-11-12T15:08:02.840Z,5.17
2023-11-12T15:10:30.301Z,7.50
2023-11-12T15:12:58.519Z,11.50
2023-11-12T15:15:25.782Z,5.97
2023-11-12T15:17:53.353Z,6.30
2023-11-12T15:20:21.274Z,5.57
2023-11-12T15:22:48.322Z,6.43
2023-11-12T15:25:16.275Z,9.70
2023-11-12T15:27:48.126Z,5.77
2023-11-12T15:30:18.106Z,5.00
2023-11-12T15:32:46.307Z,5.50
2023-11-12T15:35:15.092Z,6.03
2023-11-12T15:37:42.698Z,7.57
2023-11-12T15:40:20.991Z,7.00
2023-11-12T15:42:51.642Z,8.57
2023-11-12T15:45:19.326Z,8.73
2023-11-12T15:47:48.176Z,13.40
2023-11-12T15:50:16.669Z,8.30
2023-11-12T15:52:44.751Z,13.20
2023-11-12T15:55:16.992Z,14.47
2023-11-12T15:57:44.210Z,15.17
2023-11-12T16:00:15.938Z,14.07
2023-11-12T16:02:45.515Z,14.70
2023-11-12T16:05:13.815Z,16.17
2023-11-12T16:07:42.217Z,13.63
2023-11-12T16:10:11.965Z,12.10
2023-11-12T16:12:39.240Z,19.93
2023-11-12T16:15:12.101Z,13.70
2023-11-12T16:17:40.109Z,16.17
2023-11-12T16:20:09.701Z,18.40
2023-11-12T16:22:38.882Z,25.47
2023-11-12T16:25:09.478Z,104.00
2023-11-12T16:27:36.856Z,63.67
2023-11-12T16:30:04.855Z,48.60
2023-11-12T16:32:32.802Z,38.27
2023-11-12T16:35:00.506Z,37.27
2023-11-12T16:37:27.481Z,51.73
2023-11-12T16:39:54.509Z,32.83
2023-11-12T16:42:25.185Z,52.87
2023-11-12T16:44:52.519Z,30.00
2023-11-12T16:47:24.055Z,42.27
2023-11-12T16:49:51.974Z,110.73
2023-11-12T16:52:18.980Z,58.03
2023-11-12T16:54:46.582Z,28.83
2023-11-12T16:57:13.624Z,29.53
2023-11-12T16:59:41.391Z,17.67
2023-11-12T17:02:14.878Z,19.53
2023-11-12T17:04:42.347Z,14.50
2023-11-12T17:07:09.827Z,13.93
2023-11-12T17:09:36.866Z,16.90
2023-11-12T17:12:04.429Z,16.03
2023-11-12T17:14:31.782Z,18.83
2023-11-12T17:16:58.812Z,19.20
2023-11-12T17:19:25.774Z,21.17
2023-11-12T17:21:53.529Z,25.20
2023-11-12T17:24:22.607Z,26.57
2023-11-12T17:26:51.534Z,18.33
2023-11-12T17:29:19.210Z,27.00
2023-11-12T17:31:46.161Z,19.73
2023-11-12T17:34:14.942Z,17.87
2023-11-12T17:36:42.021Z,23.03
2023-11-12T17:39:10.830Z,23.80
2023-11-12T17:41:38.018Z,21.90
2023-11-12T17:44:05.459Z,25.73
2023-11-12T17:46:32.857Z,22.13
2023-11-12T17:49:01.935Z,22.27
2023-11-12T17:51:29.139Z,28.10
2023-11-12T17:53:56.076Z,25.30
2023-11-12T17:56:23.325Z,21.47
2023-11-12T17:58:51.086Z,24.60
2023-11-12T18:01:19.587Z,24.90
2023-11-12T18:03:49.843Z,23.27
2023-11-12T18:06:20.090Z,29.77
2023-11-12T18:08:47.071Z,25.67
2023-11-12T18:11:17.185Z,24.17
2023-11-12T18:13:45.382Z,27.80
2023-11-12T18:16:12.689Z,25.20
2023-11-12T18:18:40.809Z,31.70
2023-11-12T18:21:08.064Z,21.27
2023-11-12T18:23:35.572Z,23.50
2023-11-12T18:26:02.889Z,28.37
2023-11-12T18:28:30.000Z,36.73
2023-11-12T18:30:57.397Z,27.97
2023-11-12T18:33:24.345Z,24.07
2023-11-12T18:35:51.249Z,25.77
2023-11-12T18:38:19.178Z,22.30
2023-11-12T18:40:48.435Z,22.10
2023-11-12T18:43:16.796Z,25.93
2023-11-12T18:45:43.946Z,23.53
2023-11-12T18:48:11.642Z,24.87
2023-11-12T18:50:38.876Z,20.83
2023-11-12T18:53:06.027Z,24.63
2023-11-12T18:55:33.058Z,24.53
2023-11-12T18:58:00.466Z,18.40
2023-11-12T19:00:27.412Z,21.17
2023-11-12T19:02:54.826Z,22.57
2023-11-12T19:05:22.677Z,21.83
2023-11-12T19:07:49.872Z,21.27
2023-11-12T19:10:17.780Z,22.20
2023-11-12T19:12:45.544Z,18.87
2023-11-12T19:15:14.480Z,23.50
2023-11-12T19:17:44.494Z,27.20
2023-11-12T19:20:16.088Z,26.80
2023-11-12T19:22:44.063Z,21.37
2023-11-12T19:25:17.368Z,19.50
2023-11-12T19:27:45.088Z,23.07
2023-11-12T19:30:15.571Z,22.77
2023-11-12T19:32:44.200Z,23.90
2023-11-12T19:35:12.504Z,23.50
2023-11-12T19:37:39.761Z,18.50
2023-11-12T19:40:11.130Z,21.10
2023-11-12T19:42:40.022Z,19.20
2023-11-12T19:45:07.443Z,21.13
2023-11-12T19:47:34.606Z,19.80
2023-11-12T19:50:01.783Z,17.97
2023-11-12T19:52:29.585Z,24.40
2023-11-12T19:54:56.751Z,19.87
2023-11-12T19:57:24.127Z,21.10
2023-11-12T19:59:51.046Z,25.43
2023-11-12T20:02:18.188Z,22.17
2023-11-12T20:04:45.199Z,23.20
2023-11-12T20:07:12.600Z,21.37
2023-11-12T20:09:40.381Z,19.03
2023-11-12T20:12:07.814Z,19.40
2023-11-12T20:14:37.806Z,24.73
2023-11-12T20:17:05.038Z,24.03
2023-11-12T20:19:32.048Z,19.20
2023-11-12T20:21:59.139Z,21.00
2023-11-12T20:24:27.078Z,18.63
2023-11-12T20:26:55.430Z,23.10
2023-11-12T20:29:22.531Z,20.60
2023-11-12T20:31:55.463Z,18.50
2023-11-12T20:34:23.657Z,20.20
2023-11-12T20:36:51.926Z,23.03
2023-11-12T20:39:21.310Z,22.33
2023-11-12T20:41:50.978Z,19.60
2023-11-12T20:44:18.107Z,21.30
2023-11-12T20:46:46.178Z,20.50
2023-11-12T20:49:18.381Z,20.63
2023-11-12T20:51:52.401Z,20.47
2023-11-12T20:54:19.415Z,24.60
2023-11-12T20:56:46.494Z,22.40
2023-11-12T20:59:14.011Z,22.00
2023-11-12T21:01:41.347Z,24.67
2023-11-12T21:04:12.485Z,20.60
2023-11-12T21:06:41.850Z,21.63
2023-11-12T21:09:09.829Z,21.83
2023-11-12T21:11:41.179Z,29.90
2023-11-12T21:14:12.760Z,21.10
2023-11-12T21:16:41.269Z,29.43
2023-11-12T21:19:09.944Z,24.27
2023-11-12T21:21:38.941Z,23.57
2023-11-12T21:24:07.189Z,23.40
2023-11-12T21:26:34.901Z,24.70
2023-11-12T21:29:01.892Z,23.43
2023-11-12T21:31:28.872Z,24.80
2023-11-12T21:33:55.899Z,29.57
2023-11-12T21:36:23.219Z,25.33
2023-11-12T21:38:50.458Z,25.03
2023-11-12T21:41:18.797Z,21.67
2023-11-12T21:43:46.002Z,24.07
2023-11-12T21:46:16.410Z,24.40
2023-11-12T21:48:43.912Z,22.40
2023-11-12T21:51:10.993Z,23.40
2023-11-12T21:53:38.109Z,22.50
2023-11-12T21:56:05.809Z,26.10
2023-11-12T21:58:33.519Z,33.20
2023-11-12T22:01:01.243Z,22.93
2023-11-12T22:03:28.673Z,27.00
2023-11-12T22:05:56.123Z,21.80
2023-11-12T22:08:23.748Z,21.67
2023-11-12T22:10:51.129Z,28.17
2023-11-12T22:13:21.795Z,21.27
2023-11-12T22:15:49.172Z,25.57
2023-11-12T22:18:16.366Z,26.20
2023-11-12T22:20:43.343Z,22.00
2023-11-12T22:23:11.955Z,25.50
2023-11-12T22:25:39.822Z,22.67
2023-11-12T22:28:08.161Z,22.27
2023-11-12T22:30:36.935Z,24.33
2023-11-12T22:33:03.951Z,20.93
2023-11-12T22:35:30.927Z,24.43
2023-11-12T22:37:58.519Z,26.33
2023-11-12T22:40:25.774Z,27.77
2023-11-12T22:42:53.394Z,29.63
2023-11-12T22:45:20.605Z,22.80
2023-11-12T22:47:48.092Z,24.10
2023-11-12T22:50:18.229Z,24.87
2023-11-12T22:52:45.298Z,34.50
2023-11-12T22:55:12.698Z,25.20
2023-11-12T22:57:41.126Z,22.87
2023-11-12T23:02:57.153Z,24.53
2023-11-12T23:05:24.254Z,21.00
2023-11-12T23:07:51.206Z,24.73
2023-11-12T23:10:18.151Z,23.80
2023-11-12T23:12:45.083Z,23.37
2023-11-12T23:15:12.669Z,31.30
2023-11-12T23:17:40.196Z,27.70
2023-11-12T23:20:10.158Z,27.70
2023-11-12T23:22:37.439Z,21.93
2023-11-12T23:25:05.528Z,26.20
2023-11-12T23:27:33.246Z,21.53
2023-11-12T23:30:00.239Z,25.37
2023-11-12T23:32:27.402Z,29.70
2023-11-12T23:34:55.724Z,24.53
2023-11-12T23:37:22.815Z,22.10
2023-11-12T23:39:49.794Z,25.60
2023-11-12T23:42:18.162Z,23.63
2023-11-12T23:44:45.092Z,25.93
2023-11-12T23:47:12.061Z,20.40
2023-11-12T23:49:39.009Z,26.80
2023-11-12T23:52:06.633Z,26.87
2023-11-12T23:54:33.551Z,21.53
2023-11-12T23:57:00.938Z,27.13
2023-11-12T23:59:27.869Z,28.00
